Airfield :
LOGIN :

Register | Disclaimer

   EN    FR    IT 

 










Legend :    VFR   Marginal VFR   IFR   Intensive IFR   Very Intensive IFR
Visi :
Ceiling :
>= 8 km
>= 3000ft
5 to 8 km
1000 to 3000 ft
1500m to 5 km
500 to 1000 ft
800 to 1500m
200 to 500 ft
< 800m
< 200 ft
Symbols :   Thunderstorms  Fog  Heavy snow  Heavy precipitations  Wind > 20 kt
SIGMETs :     Misc.  Thunderstorms  Icing  Turbulence  Mountain Waves  Volcanic Ashes







- Airport Elevation : 242 ft
- IATA code : DUB


EIDW - Dublin

CURRENT METAR :
  • 150030Z 29018KT 9999 FEW010 04/03 Q0992 NOSIG

EXPIRED METARs :
  • 150000Z 28018KT 9999 FEW010 04/02 Q0992 NOSIG
  • 142330Z 28019KT 9999 FEW010 SCT200 04/03 Q0991 NOSIG
  • 142300Z 27017KT 9999 FEW010 FEW018CB BKN200 04/02 Q0991 NOSIG
  • 142230Z 26021KT 9999 FEW010 FEW018CB SCT150 03/02 Q0991 NOSIG
  • 142200Z 26022KT 9999 FEW010 BKN200 03/01 Q0991 NOSIG

TAF TAF EIDW
Valid from the 15 at 00:00 until the 16 at 00:00 UTC


142300Z 1500/1524 27018KT 9999 FEW015
BECMG 1500/1502 32018KT
TEMPO 1500/1503 31022G35KT -SHRA FEW018CB
BECMG 1503/1505 32013KT
PROB40
TEMPO 1503/1505 33017G27KT
BECMG 1518/1520 29012KT
No reported NOTAMs for that airfield.
1 SIGMET reported for the Shannon FIR (EISN) :
 
Severe turbulence
EISN SIGMET 13 VALID 142315/150315 EINN
EISN SHANNON FIR SEV TURB FCST N OF LINE N5434 W01000 - N5425 W00810 SFC/FL060 MOV SE AT 10KT WKN=



MET'MAP, your aeronautical weather chart ! - Copyright ORBIFLY December 2007 - Disclaimer

ORBIFLY MET'MAP TEAM :

Programming & Development : Alexandra Zaïnal
Concept & Development : Baudouin d'Aumeries
Co-Development & Prog : Marc-Olivier Méhu
Technical & hardware support : Manuel Goepfert

Contact : metmap@orbifly.com




SOURCES & CREDITS :

   NOAA